createdAt,value
2018-12-17T00:00:01.581Z,97.43
2018-12-17T00:15:01.514Z,97.40
2018-12-17T00:30:01.573Z,97.34
2018-12-17T00:45:01.526Z,96.86
2018-12-17T01:00:01.780Z,96.81
2018-12-17T02:20:01.593Z,96.12
2018-12-17T02:30:01.506Z,95.52
2018-12-17T02:45:01.573Z,95.28
2018-12-17T03:00:01.757Z,95.56
2018-12-17T03:25:01.477Z,95.84
2018-12-17T03:30:01.463Z,96.03
2018-12-17T03:35:01.632Z,96.03
2018-12-17T03:45:02.080Z,96.44
2018-12-17T03:50:01.528Z,96.91
2018-12-17T04:00:01.627Z,96.95
2018-12-17T04:05:01.621Z,96.95
2018-12-17T04:15:01.662Z,96.97
2018-12-17T04:25:01.544Z,97.32
2018-12-17T04:30:01.547Z,97.76
2018-12-17T04:35:01.547Z,97.76
2018-12-17T04:45:01.545Z,98.03
2018-12-17T05:00:01.755Z,98.11
2018-12-17T05:05:01.610Z,98.11
2018-12-17T05:15:01.492Z,97.91
2018-12-17T05:25:01.578Z,97.94
2018-12-17T05:30:01.489Z,97.60
2018-12-17T05:45:01.701Z,97.80
2018-12-17T05:55:01.664Z,97.57
2018-12-17T06:00:01.546Z,97.50
2018-12-17T06:40:01.668Z,97.01
2018-12-17T06:45:01.693Z,97.01
2018-12-17T07:00:02.740Z,96.93
2018-12-17T07:15:01.738Z,97.15
2018-12-17T07:30:01.682Z,97.21
2018-12-17T07:35:01.690Z,97.21
2018-12-17T07:45:01.741Z,97.18
2018-12-17T08:00:01.737Z,96.75
2018-12-17T08:16:01.682Z,96.53
2018-12-17T08:21:01.686Z,96.43
2018-12-17T08:36:01.748Z,96.35
2018-12-17T08:52:01.670Z,96.04
2018-12-17T09:07:01.760Z,95.81
2018-12-17T09:22:01.513Z,95.82
2018-12-17T09:27:01.855Z,96.10
2018-12-17T09:42:01.742Z,96.16
2018-12-17T09:52:01.751Z,96.25
2018-12-17T10:07:01.867Z,96.42
2018-12-17T10:12:01.728Z,96.42
2018-12-17T10:27:01.699Z,96.20
2018-12-17T10:42:01.524Z,96.01
2018-12-17T10:57:01.532Z,96.32
2018-12-17T11:12:01.369Z,96.27
2018-12-17T11:17:01.560Z,96.44
2018-12-17T11:32:01.552Z,96.39
2018-12-17T11:37:01.641Z,96.41
2018-12-17T11:47:01.527Z,96.18
2018-12-17T12:02:01.545Z,96.45
2018-12-17T12:17:01.563Z,96.34
2018-12-17T12:32:01.572Z,96.59
2018-12-17T12:47:01.543Z,96.95
2018-12-17T13:02:01.549Z,97.28
2018-12-17T13:17:01.515Z,97.72
2018-12-17T13:32:01.527Z,98.23
2018-12-17T13:47:01.627Z,98.57
2018-12-17T14:02:01.522Z,98.77
2018-12-17T14:12:01.553Z,99.13
2018-12-17T14:27:06.549Z,99.93
2018-12-17T14:42:02.780Z,100.00
2018-12-17T14:47:01.746Z,100.00
2018-12-17T15:02:01.675Z,100.00
2018-12-17T15:07:04.231Z,100.00
2018-12-17T15:22:01.687Z,100.00
2018-12-17T15:27:01.818Z,100.00
2018-12-17T15:42:01.528Z,100.00
2018-12-17T15:57:01.503Z,100.00
2018-12-17T16:12:01.667Z,100.00
2018-12-17T16:17:01.401Z,100.00
2018-12-17T16:32:01.762Z,100.00
2018-12-17T16:37:02.144Z,100.00
2018-12-17T16:52:01.680Z,100.00
2018-12-17T17:02:05.052Z,100.00
2018-12-17T17:17:01.588Z,100.00
2018-12-17T17:32:01.605Z,100.00
2018-12-17T17:47:01.658Z,100.00
2018-12-17T18:02:01.637Z,100.00
2018-12-17T18:18:01.584Z,100.00
2018-12-17T18:33:01.632Z,100.00
2018-12-17T18:48:01.726Z,100.00
2018-12-17T18:58:01.694Z,100.00
2018-12-17T19:03:01.658Z,100.00
2018-12-17T19:18:01.656Z,100.00
2018-12-17T19:33:01.685Z,100.00
2018-12-17T19:48:01.678Z,100.00
2018-12-17T20:03:01.702Z,100.00
2018-12-17T20:18:01.659Z,100.00
2018-12-17T20:28:01.667Z,100.00
2018-12-17T20:43:01.671Z,100.00
2018-12-17T20:58:01.632Z,100.00
2018-12-17T21:13:01.530Z,100.00
2018-12-17T21:28:01.652Z,100.00
2018-12-17T21:43:01.650Z,100.00
2018-12-17T21:58:01.694Z,100.00
2018-12-17T22:13:01.535Z,100.00
2018-12-17T22:28:01.748Z,100.00
2018-12-17T22:43:01.534Z,100.00
2018-12-17T22:48:01.544Z,100.00
2018-12-17T23:03:01.565Z,100.00
2018-12-17T23:08:01.595Z,100.00
2018-12-17T23:23:01.638Z,100.00
2018-12-17T23:38:01.618Z,100.00
2018-12-17T23:53:01.675Z,100.00
